Time;durP1;ratioP1;P1;durP2;ratioP2;P2;SDS_P1;SDS_P2;PMS_P1;PMS_P2;Temp;Humidity;BMP_temperature;BMP_pressure;BME280_temperature;BME280_humidity;BME280_pressure;Samples;Min_cycle;Max_cycle;Signal;HPM_P1;HPM_P2
2022/12/24 00:01:40;;;;;;;;;;;18.20;89.00;;;;;;5115939;28;20377;-43
2022/12/24 00:04:05;;;;;;;;;;;18.10;88.80;;;;;;5118436;28;19914;-42
2022/12/24 00:06:31;;;;;;;;;;;18.10;89.10;;;;;;5118727;28;19915;-42
2022/12/24 00:08:56;;;;;;;;;;;18.20;89.00;;;;;;5118356;28;20322;-42
2022/12/24 00:11:22;;;;;;;;;;;18.20;88.90;;;;;;5118169;28;19912;-43
2022/12/24 00:13:47;;;;;;;;;;;18.10;88.90;;;;;;5118319;28;19991;-43
2022/12/24 00:16:13;;;;;;;;;;;18.10;88.90;;;;;;5118519;28;19953;-42
2022/12/24 00:18:38;;;;;;;;;;;18.10;89.00;;;;;;5118499;28;19908;-45
2022/12/24 00:21:05;;;;;;;;;;;18.10;88.90;;;;;;5118171;28;19943;-43
2022/12/24 00:23:31;;;;;;;;;;;18.10;88.90;;;;;;5118449;28;19908;-44
2022/12/24 00:25:56;;;;;;;;;;;18.10;88.90;;;;;;5118041;28;19908;-44
2022/12/24 00:28:22;;;;;;;;;;;18.10;88.80;;;;;;5099979;28;19970;-42
2022/12/24 00:30:47;;;;;;;;;;;18.10;89.20;;;;;;5118106;28;19912;-44
2022/12/24 00:33:13;;;;;;;;;;;18.10;88.90;;;;;;5099985;28;20362;-42
2022/12/24 00:35:39;;;;;;;;;;;18.10;88.90;;;;;;5099930;28;19908;-42
2022/12/24 00:38:05;;;;;;;;;;;18.10;89.10;;;;;;5117900;28;20294;-42
2022/12/24 00:40:30;;;;;;;;;;;18.10;89.10;;;;;;5118156;28;19922;-45
2022/12/24 00:42:56;;;;;;;;;;;18.00;88.90;;;;;;5117683;28;19908;-41
2022/12/24 00:45:22;;;;;;;;;;;18.10;88.90;;;;;;5117670;28;19908;-44
2022/12/24 00:47:47;;;;;;;;;;;18.10;88.90;;;;;;5099620;28;19908;-42
2022/12/24 00:50:13;;;;;;;;;;;18.10;89.00;;;;;;5117732;28;20021;-42
2022/12/24 00:52:38;;;;;;;;;;;18.00;88.80;;;;;;5117581;28;19912;-43
2022/12/24 00:55:04;;;;;;;;;;;18.00;88.90;;;;;;5117562;28;20362;-43
2022/12/24 00:57:29;;;;;;;;;;;18.10;88.90;;;;;;5117390;28;19912;-44
2022/12/24 00:59:55;;;;;;;;;;;18.10;89.00;;;;;;5117700;28;19908;-45
2022/12/24 01:02:20;;;;;;;;;;;18.10;89.00;;;;;;5117673;28;19930;-43
2022/12/24 01:07:30;;;;;;;;;;;18.10;88.90;;;;;;5117418;28;20342;-44
2022/12/24 01:09:55;;;;;;;;;;;18.00;88.80;;;;;;5117024;28;19908;-44
2022/12/24 01:12:21;;;;;;;;;;;18.00;89.50;;;;;;5116872;28;19912;-43
2022/12/24 01:14:46;;;;;;;;;;;18.00;88.90;;;;;;5116988;28;19908;-45
2022/12/24 01:17:12;;;;;;;;;;;18.10;88.90;;;;;;5117153;28;19933;-42
2022/12/24 01:19:37;;;;;;;;;;;18.00;88.80;;;;;;5117298;28;19908;-44
2022/12/24 01:22:03;;;;;;;;;;;18.10;88.90;;;;;;5117278;28;19949;-42
2022/12/24 01:24:28;;;;;;;;;;;18.10;88.90;;;;;;5117277;28;20041;-42
2022/12/24 01:26:54;;;;;;;;;;;18.00;88.90;;;;;;5099348;28;19912;-44
2022/12/24 01:29:19;;;;;;;;;;;18.00;88.90;;;;;;5117102;28;19908;-43
2022/12/24 01:31:44;;;;;;;;;;;18.10;89.00;;;;;;5116987;28;20006;-42
2022/12/24 01:34:10;;;;;;;;;;;18.00;88.90;;;;;;5116799;28;19912;-42
2022/12/24 01:36:36;;;;;;;;;;;18.10;88.90;;;;;;5116615;28;19907;-47
2022/12/24 01:39:01;;;;;;;;;;;18.00;88.80;;;;;;5116572;28;20015;-43
2022/12/24 01:44:21;;;;;;;;;;;18.00;89.00;;;;;;5116680;28;20328;-42
2022/12/24 01:46:48;;;;;;;;;;;18.00;89.00;;;;;;5116784;28;19915;-43
2022/12/24 01:49:14;;;;;;;;;;;18.00;88.90;;;;;;5116647;28;19908;-43
2022/12/24 01:52:06;;;;;;;;;;;18.00;88.90;;;;;;5116641;28;19912;-42
2022/12/24 01:54:35;;;;;;;;;;;18.00;89.00;;;;;;5112083;28;19912;-43
2022/12/24 01:57:03;;;;;;;;;;;18.00;89.00;;;;;;5116565;28;19915;-45
2022/12/24 01:59:28;;;;;;;;;;;18.00;89.00;;;;;;5116512;28;19953;-45
2022/12/24 02:01:54;;;;;;;;;;;18.00;89.00;;;;;;5116513;28;20324;-42
2022/12/24 02:04:32;;;;;;;;;;;18.00;89.00;;;;;;5116487;28;19907;-43
2022/12/24 02:06:57;;;;;;;;;;;18.00;89.00;;;;;;5116427;28;20307;-42
2022/12/24 02:09:23;;;;;;;;;;;18.00;88.90;;;;;;5116098;28;19953;-43
2022/12/24 02:11:49;;;;;;;;;;;18.00;88.80;;;;;;5116249;28;20409;-43
2022/12/24 02:14:14;;;;;;;;;;;18.00;88.90;;;;;;5115967;28;19923;-42
2022/12/24 02:16:49;;;;;;;;;;;18.00;89.00;;;;;;5115918;28;20374;-44
2022/12/24 02:19:21;;;;;;;;;;;18.00;88.90;;;;;;5116103;28;19912;-42
2022/12/24 02:21:56;;;;;;;;;;;17.90;88.90;;;;;;5116084;28;19953;-42
2022/12/24 02:24:37;;;;;;;;;;;18.00;89.00;;;;;;5115942;28;20024;-42
2022/12/24 02:27:21;;;;;;;;;;;18.00;89.10;;;;;;5115863;28;19908;-44
2022/12/24 02:29:49;;;;;;;;;;;17.90;88.90;;;;;;5115965;28;19907;-43
2022/12/24 02:32:35;;;;;;;;;;;17.90;88.90;;;;;;5115595;28;20312;-44
2022/12/24 02:35:04;;;;;;;;;;;17.90;89.10;;;;;;5115603;28;19947;-44
2022/12/24 02:37:38;;;;;;;;;;;17.90;88.90;;;;;;5115671;28;20262;-43
2022/12/24 02:40:06;;;;;;;;;;;17.90;88.90;;;;;;5115626;28;19968;-45
2022/12/24 02:42:35;;;;;;;;;;;17.90;89.10;;;;;;5115442;28;19955;-42
2022/12/24 02:45:02;;;;;;;;;;;17.90;88.90;;;;;;5115693;28;20274;-43
2022/12/24 02:47:28;;;;;;;;;;;17.90;89.10;;;;;;5115634;28;19908;-44
2022/12/24 02:49:54;;;;;;;;;;;17.90;89.10;;;;;;5115444;28;19923;-46
2022/12/24 02:52:39;;;;;;;;;;;17.90;88.90;;;;;;5115538;28;19916;-42
2022/12/24 02:55:07;;;;;;;;;;;17.90;89.00;;;;;;5115447;28;20025;-43
2022/12/24 02:57:38;;;;;;;;;;;17.90;89.00;;;;;;5115121;28;19908;-43
2022/12/24 03:00:06;;;;;;;;;;;17.90;89.10;;;;;;5115195;28;19907;-42
2022/12/24 03:02:31;;;;;;;;;;;17.90;89.00;;;;;;5115379;28;19950;-42
2022/12/24 03:05:07;;;;;;;;;;;17.90;88.90;;;;;;5115283;28;19915;-42
2022/12/24 03:07:39;;;;;;;;;;;17.90;89.10;;;;;;5115380;28;19943;-43
2022/12/24 03:10:28;;;;;;;;;;;17.90;89.10;;;;;;5115194;28;19911;-43
2022/12/24 03:12:56;;;;;;;;;;;17.90;89.00;;;;;;5115163;28;19951;-44
2022/12/24 03:15:23;;;;;;;;;;;17.90;89.10;;;;;;5114866;28;19952;-43
2022/12/24 03:17:50;;;;;;;;;;;17.90;89.20;;;;;;5115101;28;20355;-42
2022/12/24 03:20:19;;;;;;;;;;;17.90;89.10;;;;;;5114716;28;19908;-44
2022/12/24 03:22:45;;;;;;;;;;;17.90;89.20;;;;;;5114998;28;19919;-43
2022/12/24 03:25:10;;;;;;;;;;;17.90;89.00;;;;;;5114988;28;19908;-44
2022/12/24 03:27:36;;;;;;;;;;;17.90;88.90;;;;;;5096656;28;19985;-43
2022/12/24 03:30:03;;;;;;;;;;;17.90;88.90;;;;;;5114819;28;19908;-43
2022/12/24 03:32:29;;;;;;;;;;;17.90;89.10;;;;;;5114752;28;19912;-43
2022/12/24 03:34:55;;;;;;;;;;;17.90;89.20;;;;;;5114664;28;20247;-42
2022/12/24 03:37:20;;;;;;;;;;;17.90;89.10;;;;;;5114004;27;19926;-42
2022/12/24 03:39:46;;;;;;;;;;;17.80;89.00;;;;;;5114835;28;19917;-43
2022/12/24 03:42:11;;;;;;;;;;;17.80;89.20;;;;;;5114487;28;19930;-42
2022/12/24 03:44:37;;;;;;;;;;;17.90;89.20;;;;;;5114445;28;19950;-44
2022/12/24 03:47:02;;;;;;;;;;;17.90;89.10;;;;;;5114471;28;20320;-43
2022/12/24 03:49:28;;;;;;;;;;;17.90;89.10;;;;;;5114719;28;19951;-43
2022/12/24 03:51:53;;;;;;;;;;;17.80;89.10;;;;;;5114305;28;20358;-42
2022/12/24 03:54:19;;;;;;;;;;;17.90;89.30;;;;;;5114395;28;19912;-43
2022/12/24 03:56:44;;;;;;;;;;;17.80;89.10;;;;;;5114250;28;20002;-44
2022/12/24 03:59:10;;;;;;;;;;;17.90;89.20;;;;;;5114307;28;19915;-42
2022/12/24 04:01:35;;;;;;;;;;;17.80;89.10;;;;;;5114317;28;19908;-44
2022/12/24 04:04:01;;;;;;;;;;;17.80;89.20;;;;;;5114591;28;19912;-44
2022/12/24 04:06:26;;;;;;;;;;;17.80;89.20;;;;;;5114528;28;19915;-42
2022/12/24 04:08:52;;;;;;;;;;;17.80;89.10;;;;;;5114081;28;19915;-43
2022/12/24 04:11:17;;;;;;;;;;;17.80;89.20;;;;;;5114162;28;19947;-44
2022/12/24 04:13:43;;;;;;;;;;;17.80;89.20;;;;;;5114466;28;19912;-44
2022/12/24 04:16:10;;;;;;;;;;;17.80;89.20;;;;;;5114169;28;20286;-45
2022/12/24 04:18:35;;;;;;;;;;;17.80;89.10;;;;;;5114498;28;19914;-42
2022/12/24 04:21:01;;;;;;;;;;;17.80;89.30;;;;;;5114434;28;19907;-44
2022/12/24 04:23:28;;;;;;;;;;;17.80;89.20;;;;;;5114041;28;19908;-42
2022/12/24 04:25:54;;;;;;;;;;;17.80;89.20;;;;;;5114337;28;20247;-42
2022/12/24 04:28:19;;;;;;;;;;;17.80;89.30;;;;;;5114085;28;19915;-42
2022/12/24 04:30:45;;;;;;;;;;;17.80;89.20;;;;;;5114178;28;19973;-44
2022/12/24 04:33:10;;;;;;;;;;;17.80;89.20;;;;;;5114190;28;19943;-42
2022/12/24 04:35:40;;;;;;;;;;;17.80;89.20;;;;;;5113893;28;19915;-43
2022/12/24 04:38:05;;;;;;;;;;;17.80;89.20;;;;;;5113698;28;19924;-45
2022/12/24 04:40:31;;;;;;;;;;;17.80;89.30;;;;;;5114161;28;19908;-42
2022/12/24 04:42:56;;;;;;;;;;;17.80;89.30;;;;;;5113870;28;19914;-44
2022/12/24 04:45:22;;;;;;;;;;;17.80;89.30;;;;;;5113769;28;19907;-45
2022/12/24 04:47:47;;;;;;;;;;;17.70;89.20;;;;;;5096069;28;19907;-44
2022/12/24 04:50:13;;;;;;;;;;;17.70;89.20;;;;;;5118074;28;19961;-46
2022/12/24 04:52:38;;;;;;;;;;;17.80;89.30;;;;;;5117899;28;20438;-47
2022/12/24 04:55:04;;;;;;;;;;;17.70;89.30;;;;;;5117540;28;19951;-46
2022/12/24 04:57:34;;;;;;;;;;;17.70;89.40;;;;;;5117614;28;19908;-44
2022/12/24 05:00:00;;;;;;;;;;;17.70;89.30;;;;;;5117412;28;19950;-45
2022/12/24 05:02:25;;;;;;;;;;;17.70;89.40;;;;;;5117352;28;19908;-42
2022/12/24 05:04:51;;;;;;;;;;;17.80;89.40;;;;;;5117325;28;20343;-46
2022/12/24 05:07:16;;;;;;;;;;;17.80;89.30;;;;;;5117281;28;19953;-44
2022/12/24 05:09:42;;;;;;;;;;;17.80;89.20;;;;;;5117550;28;19959;-42
2022/12/24 05:12:07;;;;;;;;;;;17.80;89.30;;;;;;5117348;28;20072;-44
2022/12/24 05:14:33;;;;;;;;;;;17.80;89.20;;;;;;5117297;28;19919;-42
2022/12/24 05:16:58;;;;;;;;;;;17.80;89.30;;;;;;5117266;28;20331;-42
2022/12/24 05:19:23;;;;;;;;;;;17.80;89.40;;;;;;5117077;28;19915;-44
2022/12/24 05:26:20;;;;;;;;;;;17.70;89.80;;;;;;5117288;28;20351;-44
2022/12/24 05:27:18;;;;;;;;;;;17.70;89.20;;;;;;5116979;28;19915;-45
2022/12/24 05:29:44;;;;;;;;;;;17.80;89.40;;;;;;5117192;28;20286;-43
2022/12/24 05:32:09;;;;;;;;;;;17.70;89.20;;;;;;5098759;28;19954;-42
2022/12/24 05:34:35;;;;;;;;;;;17.70;89.80;;;;;;5117076;28;19975;-42
2022/12/24 05:37:00;;;;;;;;;;;17.80;89.30;;;;;;5116757;28;20212;-42
2022/12/24 05:39:26;;;;;;;;;;;17.80;89.30;;;;;;5117067;28;19969;-44
2022/12/24 05:41:51;;;;;;;;;;;17.70;89.30;;;;;;5098647;28;19994;-44
2022/12/24 05:44:17;;;;;;;;;;;17.70;89.20;;;;;;5116640;28;19908;-43
2022/12/24 05:46:42;;;;;;;;;;;17.80;89.30;;;;;;5116840;28;19933;-44
2022/12/24 05:49:08;;;;;;;;;;;17.70;89.20;;;;;;5116790;28;19908;-44
2022/12/24 05:51:33;;;;;;;;;;;17.70;89.30;;;;;;5116449;28;19912;-44
2022/12/24 05:53:59;;;;;;;;;;;17.70;89.40;;;;;;5116735;28;19961;-43
2022/12/24 05:56:24;;;;;;;;;;;17.70;89.30;;;;;;5116452;28;19911;-43
2022/12/24 05:58:50;;;;;;;;;;;17.80;89.30;;;;;;5116163;28;19958;-42
2022/12/24 06:01:16;;;;;;;;;;;17.80;89.30;;;;;;5116623;28;20438;-43
2022/12/24 06:03:42;;;;;;;;;;;17.70;89.20;;;;;;5116559;28;19951;-43
2022/12/24 06:06:13;;;;;;;;;;;17.70;89.20;;;;;;5098156;28;20254;-42
2022/12/24 06:08:39;;;;;;;;;;;17.80;89.30;;;;;;5116723;28;20250;-43
2022/12/24 06:11:06;;;;;;;;;;;17.70;89.20;;;;;;5097988;28;20416;-44
2022/12/24 06:13:32;;;;;;;;;;;17.80;89.30;;;;;;5115974;28;20378;-42
2022/12/24 06:15:58;;;;;;;;;;;17.70;89.20;;;;;;5116244;28;19908;-42
2022/12/24 06:18:24;;;;;;;;;;;17.70;89.30;;;;;;5116160;28;19977;-46
2022/12/24 06:20:50;;;;;;;;;;;17.70;89.20;;;;;;5116137;28;20351;-42
2022/12/24 06:23:16;;;;;;;;;;;17.70;89.40;;;;;;5115810;28;19954;-43
2022/12/24 06:25:41;;;;;;;;;;;17.70;89.30;;;;;;5116094;28;20266;-44
2022/12/24 06:28:07;;;;;;;;;;;17.80;89.40;;;;;;5115945;28;20266;-42
2022/12/24 06:30:32;;;;;;;;;;;17.70;89.20;;;;;;5115599;28;19919;-42
2022/12/24 06:32:58;;;;;;;;;;;17.70;89.20;;;;;;5115625;28;19980;-42
2022/12/24 06:35:23;;;;;;;;;;;17.70;89.20;;;;;;5115476;28;19908;-43
2022/12/24 06:37:49;;;;;;;;;;;17.70;89.20;;;;;;5115847;28;19920;-45
2022/12/24 06:40:14;;;;;;;;;;;17.70;89.20;;;;;;5115759;28;19918;-44
2022/12/24 06:42:40;;;;;;;;;;;17.70;89.20;;;;;;5116053;28;20006;-43
2022/12/24 06:45:05;;;;;;;;;;;17.80;89.20;;;;;;5115909;28;20343;-42
2022/12/24 06:47:31;;;;;;;;;;;17.70;89.20;;;;;;5115535;28;20261;-43
2022/12/24 06:49:56;;;;;;;;;;;17.80;89.30;;;;;;5115496;28;19919;-44
2022/12/24 06:52:22;;;;;;;;;;;17.70;89.20;;;;;;5115428;28;19965;-43
2022/12/24 06:54:47;;;;;;;;;;;17.70;89.40;;;;;;5115802;28;20003;-47
2022/12/24 06:57:13;;;;;;;;;;;17.70;89.30;;;;;;5115334;28;20347;-43
2022/12/24 06:59:38;;;;;;;;;;;17.70;89.20;;;;;;5115358;28;20006;-43
2022/12/24 07:02:04;;;;;;;;;;;17.70;89.30;;;;;;5096939;28;19918;-45
2022/12/24 07:04:29;;;;;;;;;;;17.70;89.30;;;;;;5115107;28;19908;-42
2022/12/24 07:06:55;;;;;;;;;;;17.70;89.30;;;;;;5115012;28;20366;-42
2022/12/24 07:09:20;;;;;;;;;;;17.70;89.20;;;;;;5114911;28;19912;-44
2022/12/24 07:11:46;;;;;;;;;;;17.70;89.30;;;;;;5114197;28;20346;-42
2022/12/24 07:14:11;;;;;;;;;;;17.70;89.20;;;;;;5115123;28;19911;-43
2022/12/24 07:16:37;;;;;;;;;;;17.70;89.20;;;;;;5114671;28;19908;-42
2022/12/24 07:19:02;;;;;;;;;;;17.70;89.40;;;;;;5115017;28;20408;-44
2022/12/24 07:21:28;;;;;;;;;;;17.70;89.40;;;;;;5115233;28;19907;-45
2022/12/24 07:23:53;;;;;;;;;;;17.70;89.40;;;;;;5114928;28;20255;-45
2022/12/24 07:26:19;;;;;;;;;;;17.70;89.80;;;;;;5114897;28;19959;-43
2022/12/24 07:28:44;;;;;;;;;;;17.70;89.30;;;;;;5114796;28;19911;-42
2022/12/24 07:31:09;;;;;;;;;;;17.70;89.30;;;;;;5114666;28;20274;-42
2022/12/24 07:33:35;;;;;;;;;;;17.70;89.40;;;;;;5114805;28;19957;-43
2022/12/24 07:36:02;;;;;;;;;;;17.70;89.40;;;;;;5114695;28;20023;-42
2022/12/24 07:38:28;;;;;;;;;;;17.70;89.40;;;;;;5114270;28;19959;-43
2022/12/24 07:40:53;;;;;;;;;;;17.60;89.30;;;;;;5114648;28;20251;-47
2022/12/24 07:43:18;;;;;;;;;;;17.60;89.30;;;;;;5114394;28;19914;-42
2022/12/24 07:45:44;;;;;;;;;;;17.60;89.30;;;;;;5114732;28;19919;-43
2022/12/24 07:48:09;;;;;;;;;;;17.70;89.30;;;;;;5114242;28;20024;-44
2022/12/24 07:50:35;;;;;;;;;;;17.60;89.20;;;;;;5114544;28;19912;-42
2022/12/24 07:53:00;;;;;;;;;;;17.70;89.30;;;;;;5114499;28;19916;-42
2022/12/24 07:55:26;;;;;;;;;;;17.70;89.30;;;;;;5096366;28;19907;-42
2022/12/24 07:57:51;;;;;;;;;;;17.60;89.20;;;;;;5114563;28;20003;-43
2022/12/24 08:00:17;;;;;;;;;;;17.70;89.20;;;;;;5114149;28;19914;-45
2022/12/24 08:02:42;;;;;;;;;;;17.70;89.20;;;;;;5114885;28;19908;-44
2022/12/24 08:05:08;;;;;;;;;;;17.70;89.20;;;;;;5114397;28;19961;-46
2022/12/24 08:07:33;;;;;;;;;;;17.70;89.20;;;;;;5114189;28;20401;-42
2022/12/24 08:09:59;;;;;;;;;;;17.70;89.40;;;;;;5113832;28;19908;-48
2022/12/24 08:12:24;;;;;;;;;;;17.60;89.50;;;;;;5113860;28;19960;-43
2022/12/24 08:14:50;;;;;;;;;;;17.60;89.60;;;;;;5095600;28;19923;-43
2022/12/24 08:17:15;;;;;;;;;;;17.60;89.70;;;;;;5114073;28;19908;-43
2022/12/24 08:19:41;;;;;;;;;;;17.70;89.70;;;;;;5114123;28;19915;-44
2022/12/24 08:22:06;;;;;;;;;;;17.70;89.60;;;;;;5114524;28;20419;-44
2022/12/24 08:24:32;;;;;;;;;;;17.70;89.60;;;;;;5100137;28;19908;-43
2022/12/24 08:26:57;;;;;;;;;;;17.70;89.50;;;;;;5118241;28;19908;-42
2022/12/24 08:29:23;;;;;;;;;;;17.70;89.50;;;;;;5118460;28;19915;-44
2022/12/24 08:31:48;;;;;;;;;;;17.70;89.50;;;;;;5117635;28;19923;-42
2022/12/24 08:34:14;;;;;;;;;;;17.70;89.50;;;;;;5118161;28;19916;-43
2022/12/24 08:36:39;;;;;;;;;;;17.70;89.50;;;;;;5117851;28;19912;-43
2022/12/24 08:39:07;;;;;;;;;;;17.70;89.50;;;;;;5118192;28;19932;-42
2022/12/24 08:41:33;;;;;;;;;;;17.70;89.40;;;;;;5117902;28;19954;-42
2022/12/24 08:43:59;;;;;;;;;;;17.70;89.40;;;;;;5118201;28;19912;-44
2022/12/24 08:46:24;;;;;;;;;;;17.70;89.50;;;;;;5117614;28;19919;-43
2022/12/24 08:48:50;;;;;;;;;;;17.70;89.50;;;;;;5117733;28;19908;-43
2022/12/24 08:51:16;;;;;;;;;;;17.70;89.50;;;;;;5117369;28;19911;-44
2022/12/24 08:53:41;;;;;;;;;;;17.70;89.40;;;;;;5117819;28;19912;-43
2022/12/24 08:56:07;;;;;;;;;;;17.70;89.40;;;;;;5117199;28;20271;-44
2022/12/24 08:58:33;;;;;;;;;;;17.70;89.50;;;;;;5117167;28;20369;-43
2022/12/24 09:00:58;;;;;;;;;;;17.70;89.50;;;;;;5117500;28;19947;-44
2022/12/24 09:03:24;;;;;;;;;;;17.70;89.50;;;;;;5117160;28;19919;-43
2022/12/24 09:05:50;;;;;;;;;;;17.70;89.50;;;;;;5117032;28;19908;-44
2022/12/24 09:08:15;;;;;;;;;;;17.70;89.50;;;;;;5117377;28;20269;-45
2022/12/24 09:10:41;;;;;;;;;;;17.70;89.60;;;;;;5116898;28;19912;-44
2022/12/24 09:13:06;;;;;;;;;;;17.70;89.50;;;;;;5116837;28;19991;-44
2022/12/24 09:15:32;;;;;;;;;;;17.70;89.50;;;;;;5116928;28;19908;-43
2022/12/24 09:17:57;;;;;;;;;;;17.60;89.50;;;;;;5117139;28;19908;-42
2022/12/24 09:20:23;;;;;;;;;;;17.60;89.70;;;;;;5117240;28;20354;-45
2022/12/24 09:22:48;;;;;;;;;;;17.60;89.40;;;;;;5117028;28;19907;-46
2022/12/24 09:25:13;;;;;;;;;;;17.60;89.40;;;;;;5116702;28;19907;-47
2022/12/24 09:27:39;;;;;;;;;;;17.60;89.50;;;;;;5116834;28;19951;-47
2022/12/24 09:30:05;;;;;;;;;;;17.60;89.50;;;;;;5116712;28;20302;-44
2022/12/24 09:32:31;;;;;;;;;;;17.60;89.40;;;;;;5098514;28;20384;-43
2022/12/24 09:34:57;;;;;;;;;;;17.60;89.50;;;;;;5115752;28;19908;-45
2022/12/24 09:37:22;;;;;;;;;;;17.60;89.40;;;;;;5116266;28;19919;-45
2022/12/24 09:39:47;;;;;;;;;;;17.60;89.50;;;;;;5116472;28;19915;-42
2022/12/24 09:42:28;;;;;;;;;;;17.60;89.40;;;;;;5116828;28;19907;-44
2022/12/24 09:45:02;;;;;;;;;;;17.60;89.50;;;;;;5116362;28;20314;-45
2022/12/24 09:47:31;;;;;;;;;;;17.60;89.60;;;;;;5116238;28;19908;-44
2022/12/24 09:49:58;;;;;;;;;;;17.60;89.50;;;;;;5116568;28;19912;-43
2022/12/24 09:52:40;;;;;;;;;;;17.60;89.60;;;;;;5116246;28;19919;-44
2022/12/24 09:55:11;;;;;;;;;;;17.60;89.50;;;;;;5116466;28;19918;-45
2022/12/24 09:57:39;;;;;;;;;;;17.60;89.60;;;;;;5116586;28;20358;-43
2022/12/24 10:00:08;;;;;;;;;;;17.70;89.60;;;;;;5116434;28;20272;-42
2022/12/24 10:02:33;;;;;;;;;;;17.70;89.60;;;;;;5116305;28;19907;-45
2022/12/24 10:04:59;;;;;;;;;;;17.70;89.50;;;;;;5116284;28;19908;-42
2022/12/24 10:07:32;;;;;;;;;;;17.70;89.50;;;;;;5115850;28;19919;-42
2022/12/24 10:10:05;;;;;;;;;;;17.70;89.50;;;;;;5115599;28;19915;-43
2022/12/24 10:12:32;;;;;;;;;;;17.70;89.60;;;;;;5115996;28;19912;-43
2022/12/24 10:15:02;;;;;;;;;;;17.70;89.50;;;;;;5115915;28;19916;-43
2022/12/24 10:17:46;;;;;;;;;;;17.70;89.50;;;;;;5115890;28;19912;-43
2022/12/24 10:20:30;;;;;;;;;;;17.70;89.50;;;;;;5115982;28;19908;-43
2022/12/24 10:22:56;;;;;;;;;;;17.70;89.50;;;;;;5115546;28;20290;-42
2022/12/24 10:25:56;;;;;;;;;;;17.70;89.40;;;;;;5115617;28;19915;-43
2022/12/24 10:28:42;;;;;;;;;;;17.70;89.40;;;;;;5032782;28;19909;-44
2022/12/24 10:31:08;;;;;;;;;;;17.70;89.50;;;;;;5085399;28;19911;-44
2022/12/24 10:33:43;;;;;;;;;;;17.70;89.50;;;;;;5115237;28;19953;-42
2022/12/24 10:36:17;;;;;;;;;;;17.60;89.40;;;;;;5115211;28;19925;-42
2022/12/24 10:38:43;;;;;;;;;;;17.70;89.40;;;;;;5115841;28;19964;-43
2022/12/24 10:41:09;;;;;;;;;;;17.70;89.40;;;;;;5115474;28;20377;-42
2022/12/24 10:43:37;;;;;;;;;;;17.70;89.50;;;;;;5115408;28;20186;-44
2022/12/24 10:46:05;;;;;;;;;;;17.60;89.40;;;;;;5115096;28;19908;-42
2022/12/24 10:48:30;;;;;;;;;;;17.60;89.50;;;;;;5115388;28;19908;-42
2022/12/24 10:51:02;;;;;;;;;;;17.60;89.50;;;;;;5114885;28;19964;-42
2022/12/24 10:53:33;;;;;;;;;;;17.60;89.50;;;;;;5115230;28;19912;-42
2022/12/24 10:56:06;;;;;;;;;;;17.60;89.50;;;;;;5115482;28;19930;-42
2022/12/24 10:58:32;;;;;;;;;;;17.60;89.50;;;;;;5096785;28;19908;-43
2022/12/24 11:00:58;;;;;;;;;;;17.60;89.40;;;;;;5115056;28;19907;-43
2022/12/24 11:03:28;;;;;;;;;;;17.60;89.50;;;;;;5096588;28;19908;-42
2022/12/24 11:06:01;;;;;;;;;;;17.60;89.40;;;;;;5114992;28;19912;-44
2022/12/24 11:08:26;;;;;;;;;;;17.60;89.50;;;;;;5114601;28;19912;-43
2022/12/24 11:11:12;;;;;;;;;;;17.60;89.40;;;;;;5114843;28;19911;-42
2022/12/24 11:13:50;;;;;;;;;;;17.60;89.50;;;;;;5113862;28;20351;-42
2022/12/24 11:16:24;;;;;;;;;;;17.60;89.50;;;;;;5115269;28;20211;-42
2022/12/24 11:18:54;;;;;;;;;;;17.60;89.50;;;;;;5114648;28;19911;-45
2022/12/24 11:21:21;;;;;;;;;;;17.60;89.50;;;;;;5114256;28;20423;-44
2022/12/24 11:23:55;;;;;;;;;;;17.60;89.40;;;;;;5114701;28;19908;-44
2022/12/24 11:26:22;;;;;;;;;;;17.60;89.50;;;;;;5114674;28;19987;-46
2022/12/24 11:29:03;;;;;;;;;;;17.60;89.50;;;;;;5114308;28;20311;-44
2022/12/24 11:31:31;;;;;;;;;;;17.60;89.50;;;;;;5114647;28;19918;-43
2022/12/24 11:33:57;;;;;;;;;;;17.60;89.50;;;;;;5114230;28;20263;-44
2022/12/24 11:36:23;;;;;;;;;;;17.60;89.50;;;;;;5114325;28;19908;-44
2022/12/24 11:38:53;;;;;;;;;;;17.60;89.50;;;;;;5096122;28;19919;-43
2022/12/24 11:41:19;;;;;;;;;;;17.60;89.50;;;;;;5114124;28;19908;-43
2022/12/24 11:43:49;;;;;;;;;;;17.60;89.50;;;;;;5114046;28;19918;-42
2022/12/24 11:46:35;;;;;;;;;;;17.60;89.40;;;;;;5114327;28;19908;-43
2022/12/24 11:49:19;;;;;;;;;;;17.60;89.40;;;;;;5114459;28;20008;-45
2022/12/24 11:52:05;;;;;;;;;;;17.60;89.30;;;;;;5114433;28;19947;-43
2022/12/24 11:54:33;;;;;;;;;;;17.60;89.40;;;;;;5100236;28;19957;-43
2022/12/24 11:57:00;;;;;;;;;;;17.60;89.40;;;;;;5115960;28;19908;-42
2022/12/24 11:59:35;;;;;;;;;;;17.70;89.50;;;;;;5121223;28;19919;-43
2022/12/24 12:02:03;;;;;;;;;;;17.60;89.40;;;;;;5121089;28;20026;-42
2022/12/24 12:04:31;;;;;;;;;;;17.60;89.30;;;;;;5120847;28;20006;-43
2022/12/24 12:06:59;;;;;;;;;;;17.60;89.40;;;;;;5120937;28;19914;-42
2022/12/24 12:09:30;;;;;;;;;;;17.60;89.40;;;;;;5120960;28;19914;-43
2022/12/24 12:12:07;;;;;;;;;;;17.60;89.40;;;;;;5120902;28;19912;-45
2022/12/24 12:14:36;;;;;;;;;;;17.60;89.50;;;;;;5120618;28;20382;-43
2022/12/24 12:17:06;;;;;;;;;;;17.50;89.40;;;;;;5121112;28;19907;-43
2022/12/24 12:19:37;;;;;;;;;;;17.50;89.50;;;;;;5121298;28;19917;-44
2022/12/24 12:22:04;;;;;;;;;;;17.50;89.50;;;;;;5120752;28;19908;-45
2022/12/24 12:24:35;;;;;;;;;;;17.50;89.60;;;;;;5120925;28;20284;-43
2022/12/24 12:27:09;;;;;;;;;;;17.50;89.60;;;;;;5120569;28;19912;-43
2022/12/24 12:29:38;;;;;;;;;;;17.50;89.60;;;;;;5120601;28;20335;-46
2022/12/24 12:32:11;;;;;;;;;;;17.50;89.60;;;;;;5120561;28;19962;-45
2022/12/24 12:34:42;;;;;;;;;;;17.50;89.60;;;;;;5120530;28;20376;-45
2022/12/24 12:37:13;;;;;;;;;;;17.60;89.50;;;;;;5102374;28;19962;-49
2022/12/24 12:39:39;;;;;;;;;;;17.60;89.60;;;;;;5120699;28;19907;-43
2022/12/24 12:42:13;;;;;;;;;;;17.50;89.40;;;;;;5120580;28;20342;-43
2022/12/24 12:44:57;;;;;;;;;;;17.60;89.50;;;;;;5120810;28;19908;-43
2022/12/24 12:47:24;;;;;;;;;;;17.50;89.50;;;;;;5119927;28;20277;-44
2022/12/24 12:50:01;;;;;;;;;;;17.50;89.50;;;;;;5120452;28;20064;-43
2022/12/24 12:52:45;;;;;;;;;;;17.50;89.40;;;;;;5120589;28;20243;-43
2022/12/24 12:55:32;;;;;;;;;;;17.60;89.50;;;;;;5120220;28;19912;-43
2022/12/24 12:58:03;;;;;;;;;;;17.60;89.50;;;;;;5120473;28;20447;-42
2022/12/24 13:00:32;;;;;;;;;;;17.60;89.50;;;;;;5120057;28;19965;-44
2022/12/24 13:02:57;;;;;;;;;;;17.60;89.40;;;;;;5120178;28;19908;-43
2022/12/24 13:05:23;;;;;;;;;;;17.60;89.40;;;;;;5119895;28;19930;-44
2022/12/24 13:08:06;;;;;;;;;;;17.60;89.50;;;;;;5119758;28;19908;-47
2022/12/24 13:10:40;;;;;;;;;;;17.60;89.50;;;;;;5115992;28;19908;-43
2022/12/24 13:13:25;;;;;;;;;;;17.60;89.50;;;;;;5116720;28;20445;-44
2022/12/24 13:15:53;;;;;;;;;;;17.60;89.50;;;;;;5117373;28;20045;-44
2022/12/24 13:18:51;;;;;;;;;;;17.60;89.40;;;;;;5116663;28;19915;-46
2022/12/24 13:21:19;;;;;;;;;;;17.60;89.50;;;;;;5071475;28;19908;-46
2022/12/24 13:23:45;;;;;;;;;;;17.60;89.50;;;;;;5116775;28;20317;-44
2022/12/24 13:26:11;;;;;;;;;;;17.60;89.50;;;;;;5116922;28;19908;-45
2022/12/24 13:28:37;;;;;;;;;;;17.60;89.40;;;;;;5116853;28;19908;-43
2022/12/24 13:31:24;;;;;;;;;;;17.60;89.40;;;;;;5116846;28;19998;-42
2022/12/24 13:33:50;;;;;;;;;;;17.60;89.50;;;;;;5116652;28;19957;-44
2022/12/24 13:36:17;;;;;;;;;;;17.60;89.40;;;;;;5116390;28;19968;-42
2022/12/24 13:38:50;;;;;;;;;;;17.60;90.00;;;;;;5116246;28;20323;-44
2022/12/24 13:41:30;;;;;;;;;;;17.60;89.60;;;;;;5116642;28;19920;-44
2022/12/24 13:44:16;;;;;;;;;;;17.60;89.50;;;;;;5116185;28;19933;-44
2022/12/24 13:46:59;;;;;;;;;;;17.60;89.60;;;;;;5116777;28;19914;-44
2022/12/24 13:49:25;;;;;;;;;;;17.60;90.00;;;;;;5116800;28;20467;-44
2022/12/24 13:51:50;;;;;;;;;;;17.60;89.60;;;;;;5116116;28;19916;-47
2022/12/24 13:54:18;;;;;;;;;;;17.60;89.60;;;;;;5116271;28;19911;-45
2022/12/24 13:56:44;;;;;;;;;;;17.60;89.60;;;;;;5116025;28;19960;-44
2022/12/24 13:59:19;;;;;;;;;;;17.60;89.60;;;;;;5116129;28;19908;-44
2022/12/24 14:01:44;;;;;;;;;;;17.60;89.60;;;;;;5116468;28;19915;-43
2022/12/24 14:04:20;;;;;;;;;;;17.60;89.60;;;;;;5116309;28;19978;-42
2022/12/24 14:06:48;;;;;;;;;;;17.60;89.50;;;;;;5116615;28;20247;-44
2022/12/24 14:09:16;;;;;;;;;;;17.50;89.50;;;;;;5116150;28;19907;-44
2022/12/24 14:12:12;;;;;;;;;;;17.50;89.60;;;;;;5116173;28;19911;-46
2022/12/24 14:14:39;;;;;;;;;;;17.50;89.40;;;;;;5115946;28;19915;-44
2022/12/24 14:17:11;;;;;;;;;;;17.50;89.50;;;;;;5115738;28;20355;-43
2022/12/24 14:19:45;;;;;;;;;;;17.50;89.40;;;;;;5097375;28;19915;-45
2022/12/24 14:22:10;;;;;;;;;;;17.50;89.60;;;;;;5115845;28;19945;-44
2022/12/24 14:24:47;;;;;;;;;;;17.50;89.60;;;;;;5116158;28;19961;-44
2022/12/24 14:27:17;;;;;;;;;;;17.50;89.50;;;;;;5116062;28;19908;-43
2022/12/24 14:30:09;;;;;;;;;;;17.50;89.60;;;;;;5115743;28;19930;-42
2022/12/24 14:32:35;;;;;;;;;;;17.50;89.60;;;;;;5111062;28;19911;-42